LCO3100 SAEZ-SAWC
Flight info
| Callsign | LCO3100 |
|---|---|
| Flight time | 2h 48m |
| Altitude | 32000 |
| Route | GBE1E GBE UT694 IREMO UP664 CRV UW48 BOKUK BOKUK2Q |
| Aircraft | B763/H-SDE3FGHIM3RWXY/LB1 |
Departure
| Time | 2026-04-27 15:43 |
|---|---|
| Airport | Ezeiza International Airport - Ministro Pistarini (SAEZ) |
Arrival
| Time | 2026-04-27 18:32 |
|---|---|
| Airport | El Calafate - Commander Armando Tola International Airport (SAWC) |
| Time | Latitude | Longitude | Altitude | Speed | Heading |
|---|---|---|---|---|---|
| 2026-04-27 15:28 | -34.81045 | -58.53686 | 75 ft | 0 kts | 253° |
| 2026-04-27 15:30 | -34.81042 | -58.53673 | 75 ft | 2 kts | 253° |
| 2026-04-27 15:30 | -34.81038 | -58.53656 | 75 ft | 2 kts | 253° |
| 2026-04-27 15:30 | -34.81034 | -58.53638 | 75 ft | 2 kts | 253° |
| 2026-04-27 15:30 | -34.81030 | -58.53621 | 75 ft | 2 kts | 253° |
| 2026-04-27 15:31 | -34.81026 | -58.53606 | 75 ft | 0 kts | 253° |
| 2026-04-27 15:31 | -34.81021 | -58.53593 | 75 ft | 2 kts | 223° |
| 2026-04-27 15:31 | -34.81009 | -58.53585 | 75 ft | 2 kts | 181° |
| 2026-04-27 15:31 | -34.81002 | -58.53586 | 75 ft | 1 kts | 162° |
| 2026-04-27 15:32 | -34.80998 | -58.53587 | 75 ft | 0 kts | 163° |
| 2026-04-27 15:35 | -34.81000 | -58.53586 | 75 ft | 2 kts | 163° |
| 2026-04-27 15:36 | -34.81037 | -58.53573 | 75 ft | 7 kts | 164° |
| 2026-04-27 15:36 | -34.81096 | -58.53552 | 75 ft | 10 kts | 164° |
| 2026-04-27 15:36 | -34.81152 | -58.53517 | 75 ft | 10 kts | 120° |
| 2026-04-27 15:37 | -34.81157 | -58.53502 | 75 ft | 6 kts | 107° |
| 2026-04-27 15:37 | -34.81163 | -58.53426 | 75 ft | 11 kts | 95° |
| 2026-04-27 15:37 | -34.81170 | -58.53329 | 75 ft | 8 kts | 95° |
| 2026-04-27 15:37 | -34.81197 | -58.53267 | 75 ft | 9 kts | 157° |
| 2026-04-27 15:38 | -34.81269 | -58.53241 | 75 ft | 12 kts | 164° |
| 2026-04-27 15:38 | -34.81389 | -58.53200 | 75 ft | 24 kts | 165° |
| 2026-04-27 15:38 | -34.81594 | -58.53129 | 75 ft | 36 kts | 163° |
| 2026-04-27 15:38 | -34.81870 | -58.53047 | 75 ft | 45 kts | 172° |
| 2026-04-27 15:39 | -34.82008 | -58.52982 | 75 ft | 28 kts | 140° |
| 2026-04-27 15:39 | -34.82095 | -58.52670 | 75 ft | 31 kts | 104° |
| 2026-04-27 15:39 | -34.82138 | -58.52446 | 75 ft | 15 kts | 103° |
| 2026-04-27 15:39 | -34.82167 | -58.52306 | 75 ft | 18 kts | 105° |
| 2026-04-27 15:40 | -34.82200 | -58.52143 | 75 ft | 21 kts | 103° |
| 2026-04-27 15:40 | -34.82237 | -58.51956 | 75 ft | 24 kts | 104° |
| 2026-04-27 15:40 | -34.82269 | -58.51806 | 75 ft | 10 kts | 115° |
| 2026-04-27 15:40 | -34.82329 | -58.51786 | 75 ft | 10 kts | 192° |
| 2026-04-27 15:41 | -34.82413 | -58.51808 | 75 ft | 13 kts | 193° |
| 2026-04-27 15:41 | -34.82510 | -58.51834 | 75 ft | 11 kts | 193° |
| 2026-04-27 15:41 | -34.82524 | -58.51888 | 75 ft | 0 kts | 283° |
| 2026-04-27 15:43 | -34.82510 | -58.51967 | 75 ft | 37 kts | 283° |
| 2026-04-27 15:43 | -34.82402 | -58.52573 | 75 ft | 110 kts | 282° |
| 2026-04-27 15:43 | -34.82184 | -58.53783 | 106 ft | 178 kts | 280° |
| 2026-04-27 15:43 | -34.81900 | -58.55304 | 1083 ft | 188 kts | 280° |
| 2026-04-27 15:44 | -34.81587 | -58.56792 | 2294 ft | 191 kts | 281° |
| 2026-04-27 15:44 | -34.81259 | -58.58361 | 3243 ft | 199 kts | 278° |
| 2026-04-27 15:44 | -34.81367 | -58.60040 | 3744 ft | 214 kts | 244° |
| 2026-04-27 15:44 | -34.82222 | -58.61597 | 4404 ft | 231 kts | 232° |
| 2026-04-27 15:45 | -34.83225 | -58.63188 | 5174 ft | 247 kts | 232° |
| 2026-04-27 15:45 | -34.84307 | -58.64848 | 6107 ft | 257 kts | 231° |
| 2026-04-27 15:45 | -34.85467 | -58.66518 | 7201 ft | 261 kts | 224° |
| 2026-04-27 15:45 | -34.87026 | -58.67606 | 8258 ft | 269 kts | 196° |
| 2026-04-27 15:46 | -34.88900 | -58.67644 | 9296 ft | 280 kts | 170° |
| 2026-04-27 15:46 | -34.90748 | -58.66942 | 10330 ft | 287 kts | 165° |
| 2026-04-27 15:46 | -34.92669 | -58.66126 | 11139 ft | 301 kts | 165° |
| 2026-04-27 15:46 | -34.94740 | -58.65500 | 11844 ft | 314 kts | 176° |
| 2026-04-27 15:47 | -34.96960 | -58.65107 | 12568 ft | 331 kts | 174° |
| 2026-04-27 15:47 | -34.99273 | -58.64618 | 13244 ft | 348 kts | 175° |
| 2026-04-27 15:47 | -35.01751 | -58.64437 | 13833 ft | 361 kts | 188° |
| 2026-04-27 15:47 | -35.04183 | -58.65142 | 14588 ft | 368 kts | 205° |
| 2026-04-27 15:48 | -35.06447 | -58.66587 | 15660 ft | 368 kts | 212° |
| 2026-04-27 15:48 | -35.08723 | -58.68056 | 16603 ft | 374 kts | 208° |
| 2026-04-27 15:48 | -35.11028 | -58.69467 | 17615 ft | 376 kts | 210° |
| 2026-04-27 15:49 | -35.15741 | -58.72411 | 19538 ft | 385 kts | 210° |
| 2026-04-27 15:49 | -35.18145 | -58.73918 | 20501 ft | 390 kts | 210° |
| 2026-04-27 15:49 | -35.20547 | -58.75432 | 21331 ft | 395 kts | 210° |
| 2026-04-27 15:49 | -35.23003 | -58.76981 | 22295 ft | 397 kts | 211° |
| 2026-04-27 15:50 | -35.25447 | -58.78524 | 23064 ft | 401 kts | 210° |
| 2026-04-27 15:50 | -35.27933 | -58.80096 | 23875 ft | 404 kts | 211° |
| 2026-04-27 15:50 | -35.29606 | -58.81154 | 24337 ft | 407 kts | 210° |
| 2026-04-27 15:50 | -35.32980 | -58.83292 | 25249 ft | 413 kts | 210° |
| 2026-04-27 15:51 | -35.35515 | -58.84900 | 25934 ft | 416 kts | 211° |
| 2026-04-27 15:51 | -35.38108 | -58.86544 | 26597 ft | 419 kts | 211° |
| 2026-04-27 15:51 | -35.40689 | -58.88182 | 27179 ft | 423 kts | 210° |
| 2026-04-27 15:51 | -35.43312 | -58.89849 | 27730 ft | 427 kts | 210° |
| 2026-04-27 15:52 | -35.45927 | -58.91511 | 28306 ft | 429 kts | 210° |
| 2026-04-27 15:52 | -35.47708 | -58.92644 | 28702 ft | 430 kts | 210° |
| 2026-04-27 15:52 | -35.51263 | -58.94907 | 29354 ft | 433 kts | 210° |
| 2026-04-27 15:52 | -35.53026 | -58.96031 | 29778 ft | 432 kts | 210° |
| 2026-04-27 15:53 | -35.56572 | -58.98289 | 30582 ft | 430 kts | 210° |
| 2026-04-27 15:53 | -35.58351 | -58.99425 | 30962 ft | 429 kts | 210° |
| 2026-04-27 15:53 | -35.61845 | -59.01656 | 31572 ft | 429 kts | 210° |
| 2026-04-27 15:53 | -35.64479 | -59.03341 | 32055 ft | 427 kts | 210° |
| 2026-04-27 15:54 | -35.67124 | -59.05033 | 32069 ft | 430 kts | 210° |
| 2026-04-27 15:54 | -35.72387 | -59.08402 | 32069 ft | 424 kts | 210° |
| 2026-04-27 15:55 | -35.76756 | -59.11204 | 32077 ft | 423 kts | 210° |
| 2026-04-27 15:55 | -35.82857 | -59.15123 | 32081 ft | 425 kts | 210° |
| 2026-04-27 15:56 | -35.88068 | -59.18475 | 32062 ft | 423 kts | 210° |
| 2026-04-27 15:56 | -35.93273 | -59.21829 | 32071 ft | 422 kts | 210° |
| 2026-04-27 15:57 | -35.97609 | -59.24626 | 32073 ft | 422 kts | 210° |
| 2026-04-27 15:57 | -36.02771 | -59.27960 | 32062 ft | 421 kts | 210° |
| 2026-04-27 15:58 | -36.07951 | -59.31311 | 32061 ft | 420 kts | 210° |
| 2026-04-27 15:58 | -36.14039 | -59.35257 | 32069 ft | 423 kts | 210° |
| 2026-04-27 15:59 | -36.18341 | -59.38051 | 32069 ft | 422 kts | 210° |
| 2026-04-27 15:59 | -36.23537 | -59.41427 | 32069 ft | 422 kts | 210° |
| 2026-04-27 16:00 | -36.28707 | -59.44792 | 32069 ft | 420 kts | 210° |
| 2026-04-27 16:00 | -36.33879 | -59.48164 | 32059 ft | 420 kts | 210° |
| 2026-04-27 16:01 | -36.39048 | -59.51539 | 32058 ft | 421 kts | 210° |
| 2026-04-27 16:01 | -36.44247 | -59.54937 | 32059 ft | 420 kts | 210° |
| 2026-04-27 16:02 | -36.49416 | -59.58322 | 32054 ft | 420 kts | 210° |
| 2026-04-27 16:02 | -36.54583 | -59.61711 | 32041 ft | 421 kts | 210° |
| 2026-04-27 16:03 | -36.59754 | -59.65107 | 32054 ft | 420 kts | 210° |
| 2026-04-27 16:03 | -36.65783 | -59.69073 | 32061 ft | 419 kts | 210° |
| 2026-04-27 16:04 | -36.70926 | -59.72464 | 32048 ft | 418 kts | 210° |
| 2026-04-27 16:04 | -36.75228 | -59.75303 | 32053 ft | 419 kts | 210° |
| 2026-04-27 16:05 | -36.81243 | -59.79279 | 32049 ft | 421 kts | 210° |
| 2026-04-27 16:05 | -36.85510 | -59.82104 | 32045 ft | 420 kts | 210° |
| 2026-04-27 16:06 | -36.90662 | -59.85519 | 32044 ft | 419 kts | 210° |
| 2026-04-27 16:06 | -36.95847 | -59.88961 | 32041 ft | 420 kts | 210° |
| 2026-04-27 16:07 | -37.00982 | -59.92376 | 32038 ft | 418 kts | 210° |
| 2026-04-27 16:07 | -37.06133 | -59.95806 | 32044 ft | 420 kts | 210° |
| 2026-04-27 16:08 | -37.11261 | -59.99226 | 32040 ft | 417 kts | 210° |
| 2026-04-27 16:08 | -37.16384 | -60.02648 | 32044 ft | 419 kts | 210° |
| 2026-04-27 16:09 | -37.21514 | -60.06082 | 32049 ft | 418 kts | 210° |
| 2026-04-27 16:09 | -37.29224 | -60.11250 | 32038 ft | 420 kts | 210° |
| 2026-04-27 16:10 | -37.39502 | -60.18160 | 32048 ft | 420 kts | 210° |
| 2026-04-27 16:11 | -37.48098 | -60.23954 | 32047 ft | 420 kts | 211° |
| 2026-04-27 16:12 | -37.55004 | -60.28621 | 32037 ft | 422 kts | 211° |
| 2026-04-27 16:13 | -37.62741 | -60.33861 | 32035 ft | 422 kts | 211° |
| 2026-04-27 16:13 | -37.70470 | -60.39109 | 32043 ft | 421 kts | 211° |
| 2026-04-27 16:14 | -37.80767 | -60.46118 | 32035 ft | 422 kts | 211° |
| 2026-04-27 16:15 | -37.91065 | -60.53152 | 32029 ft | 421 kts | 211° |
| 2026-04-27 16:16 | -38.01394 | -60.60229 | 32028 ft | 422 kts | 211° |
| 2026-04-27 16:17 | -38.11703 | -60.67316 | 32044 ft | 422 kts | 212° |
| 2026-04-27 16:18 | -38.22925 | -60.75056 | 32051 ft | 424 kts | 211° |
| 2026-04-27 16:19 | -38.27234 | -60.78034 | 32047 ft | 424 kts | 211° |
| 2026-04-27 16:20 | -38.37557 | -60.85188 | 32047 ft | 425 kts | 212° |
| 2026-04-27 16:21 | -38.45354 | -60.90608 | 32045 ft | 426 kts | 211° |
| 2026-04-27 16:22 | -38.55741 | -60.97848 | 32033 ft | 426 kts | 211° |
| 2026-04-27 16:22 | -38.63520 | -61.03285 | 32030 ft | 426 kts | 211° |
| 2026-04-27 16:23 | -38.71355 | -61.08776 | 32017 ft | 429 kts | 211° |
| 2026-04-27 16:24 | -38.76573 | -61.12441 | 32023 ft | 428 kts | 211° |
| 2026-04-27 16:25 | -38.87017 | -61.19793 | 32024 ft | 429 kts | 211° |
| 2026-04-27 16:26 | -38.97492 | -61.27193 | 32021 ft | 432 kts | 211° |
| 2026-04-27 16:27 | -39.07954 | -61.34610 | 32019 ft | 433 kts | 211° |
| 2026-04-27 16:28 | -39.21138 | -61.43991 | 32024 ft | 432 kts | 211° |
| 2026-04-27 16:29 | -39.34303 | -61.53399 | 32017 ft | 434 kts | 211° |
| 2026-04-27 16:30 | -39.44859 | -61.60973 | 32014 ft | 435 kts | 211° |
| 2026-04-27 16:31 | -39.58984 | -61.71148 | 32013 ft | 437 kts | 212° |
| 2026-04-27 16:32 | -39.66090 | -61.76285 | 32006 ft | 438 kts | 212° |
| 2026-04-27 16:33 | -39.74073 | -61.82072 | 32000 ft | 440 kts | 212° |
| 2026-04-27 16:33 | -39.79386 | -61.85931 | 32000 ft | 440 kts | 212° |
| 2026-04-27 16:34 | -39.84721 | -61.89813 | 32003 ft | 439 kts | 212° |
| 2026-04-27 16:34 | -39.89634 | -61.94423 | 31995 ft | 439 kts | 220° |
| 2026-04-27 16:35 | -39.94395 | -61.99437 | 31989 ft | 438 kts | 221° |
| 2026-04-27 16:36 | -40.01444 | -62.06954 | 31985 ft | 441 kts | 221° |
| 2026-04-27 16:36 | -40.06193 | -62.12049 | 31993 ft | 439 kts | 221° |
| 2026-04-27 16:37 | -40.10887 | -62.17099 | 32001 ft | 439 kts | 221° |
| 2026-04-27 16:37 | -40.15591 | -62.22171 | 32000 ft | 440 kts | 221° |
| 2026-04-27 16:38 | -40.20303 | -62.27262 | 31999 ft | 438 kts | 221° |
| 2026-04-27 16:38 | -40.24976 | -62.32321 | 31993 ft | 439 kts | 221° |
| 2026-04-27 16:39 | -40.29669 | -62.37411 | 31992 ft | 439 kts | 221° |
| 2026-04-27 16:39 | -40.34369 | -62.42518 | 31991 ft | 438 kts | 221° |
| 2026-04-27 16:40 | -40.39056 | -62.47620 | 31984 ft | 440 kts | 221° |
| 2026-04-27 16:40 | -40.43727 | -62.52715 | 31988 ft | 438 kts | 221° |
| 2026-04-27 16:41 | -40.48399 | -62.57819 | 31985 ft | 439 kts | 220° |
| 2026-04-27 16:41 | -40.53076 | -62.62940 | 31979 ft | 439 kts | 221° |
| 2026-04-27 16:42 | -40.57765 | -62.68084 | 31984 ft | 439 kts | 221° |
| 2026-04-27 16:42 | -40.62441 | -62.73222 | 31982 ft | 439 kts | 221° |
| 2026-04-27 16:43 | -40.67118 | -62.78371 | 31984 ft | 438 kts | 221° |
| 2026-04-27 16:43 | -40.71781 | -62.83514 | 31987 ft | 440 kts | 221° |
| 2026-04-27 16:44 | -40.76445 | -62.88669 | 31984 ft | 440 kts | 221° |
| 2026-04-27 16:44 | -40.81141 | -62.93868 | 31985 ft | 440 kts | 221° |
| 2026-04-27 16:45 | -40.85806 | -62.99044 | 31984 ft | 440 kts | 221° |
| 2026-04-27 16:45 | -40.90752 | -63.03807 | 31985 ft | 442 kts | 216° |
| 2026-04-27 16:46 | -40.95795 | -63.08434 | 31978 ft | 442 kts | 216° |
| 2026-04-27 16:46 | -41.00844 | -63.13084 | 31976 ft | 440 kts | 216° |
| 2026-04-27 16:47 | -41.05847 | -63.17706 | 31960 ft | 441 kts | 216° |
| 2026-04-27 16:47 | -41.10894 | -63.22380 | 31960 ft | 441 kts | 216° |
| 2026-04-27 16:48 | -41.15909 | -63.27035 | 31962 ft | 443 kts | 216° |
| 2026-04-27 16:48 | -41.20957 | -63.31730 | 31953 ft | 443 kts | 216° |
| 2026-04-27 16:49 | -41.28499 | -63.38760 | 31941 ft | 443 kts | 217° |
| 2026-04-27 16:49 | -41.33537 | -63.43469 | 31940 ft | 442 kts | 217° |
| 2026-04-27 16:50 | -41.38579 | -63.48190 | 31938 ft | 442 kts | 217° |
| 2026-04-27 16:50 | -41.43592 | -63.52893 | 31931 ft | 443 kts | 217° |
| 2026-04-27 16:51 | -41.48622 | -63.57620 | 31928 ft | 442 kts | 217° |
| 2026-04-27 16:51 | -41.53628 | -63.62334 | 31926 ft | 442 kts | 217° |
| 2026-04-27 16:52 | -41.58650 | -63.67074 | 31928 ft | 442 kts | 217° |
| 2026-04-27 16:52 | -41.63679 | -63.71828 | 31926 ft | 443 kts | 217° |
| 2026-04-27 16:53 | -41.68684 | -63.76569 | 31919 ft | 443 kts | 217° |
| 2026-04-27 16:53 | -41.73693 | -63.81324 | 31911 ft | 442 kts | 217° |
| 2026-04-27 16:54 | -41.78693 | -63.86077 | 31909 ft | 442 kts | 217° |
| 2026-04-27 16:54 | -41.83722 | -63.90869 | 31905 ft | 443 kts | 217° |
| 2026-04-27 16:55 | -41.88730 | -63.95650 | 31907 ft | 443 kts | 217° |
| 2026-04-27 16:55 | -41.93743 | -64.00446 | 31904 ft | 443 kts | 217° |
| 2026-04-27 16:56 | -41.98743 | -64.05239 | 31902 ft | 444 kts | 218° |
| 2026-04-27 16:56 | -42.03756 | -64.10054 | 31897 ft | 443 kts | 218° |
| 2026-04-27 16:57 | -42.08779 | -64.14887 | 31897 ft | 443 kts | 218° |
| 2026-04-27 16:57 | -42.13787 | -64.19715 | 31899 ft | 443 kts | 217° |
| 2026-04-27 16:58 | -42.18789 | -64.24548 | 31897 ft | 442 kts | 217° |
| 2026-04-27 16:58 | -42.23789 | -64.29388 | 31894 ft | 444 kts | 218° |
| 2026-04-27 16:59 | -42.28802 | -64.34250 | 31889 ft | 444 kts | 218° |
| 2026-04-27 16:59 | -42.33772 | -64.39080 | 31882 ft | 443 kts | 218° |
| 2026-04-27 17:00 | -42.41267 | -64.46384 | 31877 ft | 443 kts | 218° |
| 2026-04-27 17:01 | -42.46277 | -64.51276 | 31875 ft | 443 kts | 218° |
| 2026-04-27 17:01 | -42.51247 | -64.56142 | 31873 ft | 443 kts | 218° |
| 2026-04-27 17:02 | -42.56251 | -64.61050 | 31874 ft | 448 kts | 218° |
| 2026-04-27 17:02 | -42.61317 | -64.66027 | 31874 ft | 451 kts | 218° |
| 2026-04-27 17:03 | -42.66421 | -64.71052 | 31878 ft | 449 kts | 218° |
| 2026-04-27 17:03 | -42.71455 | -64.76019 | 31879 ft | 450 kts | 218° |
| 2026-04-27 17:04 | -42.76513 | -64.81020 | 31876 ft | 449 kts | 218° |
| 2026-04-27 17:04 | -42.81553 | -64.86014 | 31877 ft | 449 kts | 218° |
| 2026-04-27 17:05 | -42.86591 | -64.91016 | 31879 ft | 449 kts | 218° |
| 2026-04-27 17:05 | -42.91652 | -64.96051 | 31878 ft | 449 kts | 218° |
| 2026-04-27 17:06 | -42.96588 | -65.00969 | 31886 ft | 426 kts | 218° |
| 2026-04-27 17:06 | -42.98924 | -65.03301 | 31868 ft | 407 kts | 219° |
| 2026-04-27 17:06 | -43.01183 | -65.05559 | 31866 ft | 389 kts | 219° |
| 2026-04-27 17:06 | -43.03304 | -65.07681 | 31862 ft | 373 kts | 219° |
| 2026-04-27 17:07 | -43.05346 | -65.09713 | 31749 ft | 359 kts | 219° |
| 2026-04-27 17:07 | -43.07326 | -65.11702 | 31868 ft | 341 kts | 219° |
| 2026-04-27 17:07 | -43.09186 | -65.13573 | 31838 ft | 326 kts | 219° |
| 2026-04-27 17:08 | -43.12852 | -65.17265 | 31886 ft | 342 kts | 219° |
| 2026-04-27 17:08 | -43.14812 | -65.19240 | 31879 ft | 355 kts | 219° |
| 2026-04-27 17:08 | -43.16803 | -65.21242 | 31869 ft | 358 kts | 219° |
| 2026-04-27 17:09 | -43.20829 | -65.25156 | 31864 ft | 353 kts | 214° |
| 2026-04-27 17:09 | -43.25085 | -65.28501 | 31867 ft | 356 kts | 213° |
| 2026-04-27 17:10 | -43.29378 | -65.31886 | 31863 ft | 356 kts | 213° |
| 2026-04-27 17:10 | -43.33746 | -65.35335 | 31857 ft | 368 kts | 213° |
| 2026-04-27 17:11 | -43.38160 | -65.38817 | 31839 ft | 364 kts | 213° |
| 2026-04-27 17:11 | -43.44698 | -65.43992 | 31847 ft | 365 kts | 213° |
| 2026-04-27 17:12 | -43.51305 | -65.49232 | 31827 ft | 364 kts | 213° |
| 2026-04-27 17:13 | -43.55697 | -65.52724 | 31828 ft | 362 kts | 213° |
| 2026-04-27 17:13 | -43.59974 | -65.56128 | 31821 ft | 351 kts | 213° |
| 2026-04-27 17:14 | -43.64196 | -65.59497 | 31824 ft | 354 kts | 213° |
| 2026-04-27 17:14 | -43.68466 | -65.62909 | 31820 ft | 354 kts | 214° |
| 2026-04-27 17:15 | -43.72723 | -65.66316 | 31826 ft | 354 kts | 214° |
| 2026-04-27 17:15 | -43.76967 | -65.69717 | 31773 ft | 351 kts | 214° |
| 2026-04-27 17:16 | -43.81195 | -65.73115 | 31827 ft | 357 kts | 214° |
| 2026-04-27 17:16 | -43.85449 | -65.76533 | 31823 ft | 353 kts | 214° |
| 2026-04-27 17:17 | -43.89694 | -65.79953 | 31823 ft | 354 kts | 214° |
| 2026-04-27 17:17 | -43.93937 | -65.83378 | 31821 ft | 353 kts | 214° |
| 2026-04-27 17:18 | -43.98223 | -65.86843 | 32199 ft | 358 kts | 214° |
| 2026-04-27 17:18 | -44.00337 | -65.88554 | 32749 ft | 358 kts | 214° |
| 2026-04-27 17:18 | -44.02506 | -65.90311 | 33102 ft | 363 kts | 214° |
| 2026-04-27 17:18 | -44.04688 | -65.92082 | 33580 ft | 364 kts | 214° |
| 2026-04-27 17:19 | -44.06883 | -65.93864 | 33824 ft | 365 kts | 214° |
| 2026-04-27 17:19 | -44.09079 | -65.95647 | 33808 ft | 366 kts | 214° |
| 2026-04-27 17:19 | -44.13488 | -65.99232 | 33823 ft | 369 kts | 214° |
| 2026-04-27 17:20 | -44.15720 | -66.01031 | 33842 ft | 381 kts | 214° |
| 2026-04-27 17:20 | -44.18058 | -66.02920 | 33863 ft | 392 kts | 214° |
| 2026-04-27 17:20 | -44.22739 | -66.06762 | 33859 ft | 384 kts | 214° |
| 2026-04-27 17:21 | -44.25018 | -66.08627 | 33833 ft | 370 kts | 214° |
| 2026-04-27 17:21 | -44.27173 | -66.10391 | 33781 ft | 353 kts | 214° |
| 2026-04-27 17:21 | -44.31419 | -66.13882 | 33817 ft | 364 kts | 214° |
| 2026-04-27 17:22 | -44.35798 | -66.17477 | 33803 ft | 366 kts | 214° |
| 2026-04-27 17:22 | -44.40152 | -66.21056 | 33807 ft | 362 kts | 214° |
| 2026-04-27 17:23 | -44.44503 | -66.24641 | 33807 ft | 364 kts | 214° |
| 2026-04-27 17:23 | -44.48856 | -66.28232 | 33802 ft | 363 kts | 214° |
| 2026-04-27 17:24 | -44.53189 | -66.31813 | 33797 ft | 363 kts | 214° |
| 2026-04-27 17:24 | -44.57541 | -66.35416 | 33797 ft | 363 kts | 214° |
| 2026-04-27 17:25 | -44.61899 | -66.39031 | 33798 ft | 366 kts | 214° |
| 2026-04-27 17:25 | -44.64106 | -66.40868 | 33802 ft | 378 kts | 214° |
| 2026-04-27 17:25 | -44.66389 | -66.42768 | 33803 ft | 389 kts | 214° |
| 2026-04-27 17:26 | -44.68762 | -66.44743 | 33798 ft | 401 kts | 214° |
| 2026-04-27 17:26 | -44.71175 | -66.46751 | 33798 ft | 412 kts | 214° |
| 2026-04-27 17:26 | -44.76214 | -66.50954 | 33793 ft | 430 kts | 213° |
| 2026-04-27 17:27 | -44.81359 | -66.55250 | 33789 ft | 432 kts | 213° |
| 2026-04-27 17:27 | -44.86500 | -66.59553 | 33795 ft | 430 kts | 213° |
| 2026-04-27 17:28 | -44.91663 | -66.63885 | 33794 ft | 431 kts | 214° |
| 2026-04-27 17:29 | -44.99356 | -66.70359 | 33799 ft | 430 kts | 214° |
| 2026-04-27 17:29 | -45.04473 | -66.74675 | 33802 ft | 430 kts | 214° |
| 2026-04-27 17:30 | -45.09588 | -66.78999 | 33794 ft | 430 kts | 214° |
| 2026-04-27 17:30 | -45.17276 | -66.85514 | 33804 ft | 429 kts | 214° |
| 2026-04-27 17:31 | -45.22385 | -66.89856 | 33800 ft | 430 kts | 214° |
| 2026-04-27 17:31 | -45.27472 | -66.94188 | 33803 ft | 428 kts | 214° |
| 2026-04-27 17:32 | -45.35122 | -67.00720 | 33804 ft | 429 kts | 214° |
| 2026-04-27 17:33 | -45.40241 | -67.05102 | 33803 ft | 429 kts | 214° |
| 2026-04-27 17:33 | -45.45320 | -67.09460 | 33801 ft | 430 kts | 214° |
| 2026-04-27 17:34 | -45.50444 | -67.13866 | 33797 ft | 430 kts | 214° |
| 2026-04-27 17:34 | -45.55563 | -67.18276 | 33802 ft | 430 kts | 214° |
| 2026-04-27 17:35 | -45.60665 | -67.22681 | 33810 ft | 430 kts | 214° |
| 2026-04-27 17:35 | -45.65756 | -67.27086 | 33812 ft | 428 kts | 214° |
| 2026-04-27 17:36 | -45.70824 | -67.31482 | 33814 ft | 428 kts | 214° |
| 2026-04-27 17:36 | -45.75928 | -67.35917 | 33819 ft | 428 kts | 214° |
| 2026-04-27 17:37 | -45.80922 | -67.40501 | 33821 ft | 427 kts | 216° |
| 2026-04-27 17:37 | -45.85866 | -67.45152 | 33813 ft | 428 kts | 216° |
| 2026-04-27 17:38 | -45.90844 | -67.49844 | 33814 ft | 428 kts | 216° |
| 2026-04-27 17:38 | -45.95780 | -67.54505 | 33806 ft | 427 kts | 215° |
| 2026-04-27 17:39 | -46.00738 | -67.59197 | 33804 ft | 427 kts | 215° |
| 2026-04-27 17:39 | -46.05699 | -67.63902 | 33790 ft | 426 kts | 215° |
| 2026-04-27 17:40 | -46.10621 | -67.68580 | 33797 ft | 426 kts | 216° |
| 2026-04-27 17:40 | -46.15564 | -67.73288 | 33799 ft | 426 kts | 216° |
| 2026-04-27 17:41 | -46.20497 | -67.77996 | 33800 ft | 426 kts | 216° |
| 2026-04-27 17:41 | -46.25409 | -67.82696 | 33802 ft | 425 kts | 216° |
| 2026-04-27 17:42 | -46.30328 | -67.87412 | 33797 ft | 424 kts | 216° |
| 2026-04-27 17:42 | -46.35227 | -67.92118 | 33799 ft | 425 kts | 216° |
| 2026-04-27 17:43 | -46.40128 | -67.96838 | 33798 ft | 425 kts | 216° |
| 2026-04-27 17:43 | -46.45036 | -68.01575 | 33800 ft | 425 kts | 216° |
| 2026-04-27 17:44 | -46.49952 | -68.06329 | 33802 ft | 426 kts | 216° |
| 2026-04-27 17:44 | -46.54865 | -68.11091 | 33798 ft | 424 kts | 216° |
| 2026-04-27 17:45 | -46.59745 | -68.15833 | 33798 ft | 424 kts | 216° |
| 2026-04-27 17:45 | -46.64659 | -68.20616 | 33794 ft | 424 kts | 216° |
| 2026-04-27 17:46 | -46.69524 | -68.25362 | 33786 ft | 424 kts | 216° |
| 2026-04-27 17:46 | -46.74420 | -68.30152 | 33780 ft | 423 kts | 216° |
| 2026-04-27 17:47 | -46.79293 | -68.34927 | 33785 ft | 424 kts | 216° |
| 2026-04-27 17:47 | -46.84174 | -68.39722 | 33783 ft | 423 kts | 216° |
| 2026-04-27 17:48 | -46.89043 | -68.44516 | 33779 ft | 424 kts | 216° |
| 2026-04-27 17:48 | -46.93928 | -68.49335 | 33783 ft | 423 kts | 216° |
| 2026-04-27 17:49 | -46.98796 | -68.54148 | 33783 ft | 421 kts | 216° |
| 2026-04-27 17:49 | -47.03622 | -68.58932 | 33789 ft | 419 kts | 216° |
| 2026-04-27 17:50 | -47.08437 | -68.63715 | 33796 ft | 421 kts | 216° |
| 2026-04-27 17:50 | -47.15672 | -68.70922 | 33797 ft | 420 kts | 216° |
| 2026-04-27 17:51 | -47.20513 | -68.75757 | 33814 ft | 420 kts | 216° |
| 2026-04-27 17:51 | -47.25331 | -68.80579 | 33804 ft | 421 kts | 216° |
| 2026-04-27 17:52 | -47.30165 | -68.85430 | 33791 ft | 420 kts | 216° |
| 2026-04-27 17:52 | -47.34969 | -68.90260 | 33774 ft | 420 kts | 216° |
| 2026-04-27 17:53 | -47.39803 | -68.95133 | 33787 ft | 421 kts | 216° |
| 2026-04-27 17:53 | -47.44599 | -68.99977 | 33780 ft | 419 kts | 216° |
| 2026-04-27 17:54 | -47.49409 | -69.04847 | 33780 ft | 420 kts | 216° |
| 2026-04-27 17:54 | -47.54215 | -69.09723 | 33782 ft | 420 kts | 216° |
| 2026-04-27 17:55 | -47.59024 | -69.14615 | 33780 ft | 420 kts | 216° |
| 2026-04-27 17:55 | -47.63807 | -69.19488 | 33781 ft | 419 kts | 216° |
| 2026-04-27 17:56 | -47.68597 | -69.24383 | 33781 ft | 420 kts | 216° |
| 2026-04-27 17:56 | -47.73395 | -69.29295 | 33782 ft | 418 kts | 216° |
| 2026-04-27 17:57 | -47.78175 | -69.34201 | 33780 ft | 418 kts | 216° |
| 2026-04-27 17:57 | -47.82932 | -69.39095 | 33781 ft | 418 kts | 216° |
| 2026-04-27 17:58 | -47.87680 | -69.43990 | 33778 ft | 417 kts | 216° |
| 2026-04-27 17:58 | -47.92466 | -69.48934 | 33780 ft | 417 kts | 216° |
| 2026-04-27 17:59 | -47.97219 | -69.53857 | 33776 ft | 418 kts | 216° |
| 2026-04-27 17:59 | -48.01980 | -69.58798 | 33768 ft | 419 kts | 216° |
| 2026-04-27 18:00 | -48.06755 | -69.63767 | 33764 ft | 419 kts | 216° |
| 2026-04-27 18:00 | -48.11490 | -69.68704 | 33768 ft | 418 kts | 216° |
| 2026-04-27 18:01 | -48.16294 | -69.73726 | 33778 ft | 418 kts | 217° |
| 2026-04-27 18:01 | -48.21035 | -69.78692 | 33784 ft | 417 kts | 216° |
| 2026-04-27 18:02 | -48.25788 | -69.83682 | 33786 ft | 417 kts | 217° |
| 2026-04-27 18:02 | -48.30493 | -69.88635 | 33782 ft | 414 kts | 217° |
| 2026-04-27 18:03 | -48.35207 | -69.93608 | 33783 ft | 413 kts | 217° |
| 2026-04-27 18:03 | -48.39900 | -69.98571 | 33782 ft | 413 kts | 216° |
| 2026-04-27 18:04 | -48.44585 | -70.03533 | 33779 ft | 412 kts | 217° |
| 2026-04-27 18:04 | -48.49269 | -70.08442 | 33780 ft | 412 kts | 216° |
| 2026-04-27 18:05 | -48.53973 | -70.13379 | 33784 ft | 412 kts | 216° |
| 2026-04-27 18:05 | -48.58643 | -70.18291 | 33785 ft | 412 kts | 216° |
| 2026-04-27 18:06 | -48.63337 | -70.23242 | 33786 ft | 410 kts | 216° |
| 2026-04-27 18:06 | -48.65618 | -70.25648 | 33778 ft | 396 kts | 216° |
| 2026-04-27 18:06 | -48.67823 | -70.27979 | 33775 ft | 382 kts | 216° |
| 2026-04-27 18:07 | -48.72164 | -70.32581 | 33784 ft | 385 kts | 216° |
| 2026-04-27 18:07 | -48.74411 | -70.34968 | 33356 ft | 403 kts | 216° |
| 2026-04-27 18:07 | -48.76716 | -70.37416 | 32721 ft | 410 kts | 216° |
| 2026-04-27 18:08 | -48.79021 | -70.39867 | 32048 ft | 409 kts | 216° |
| 2026-04-27 18:08 | -48.81330 | -70.42324 | 31385 ft | 407 kts | 216° |
| 2026-04-27 18:08 | -48.83637 | -70.44783 | 30735 ft | 409 kts | 216° |
| 2026-04-27 18:08 | -48.85988 | -70.47291 | 30017 ft | 415 kts | 216° |
| 2026-04-27 18:09 | -48.88340 | -70.49805 | 29300 ft | 420 kts | 216° |
| 2026-04-27 18:09 | -48.90722 | -70.52351 | 28572 ft | 421 kts | 216° |
| 2026-04-27 18:09 | -48.93080 | -70.54874 | 27847 ft | 414 kts | 216° |
| 2026-04-27 18:09 | -48.95404 | -70.57366 | 27122 ft | 408 kts | 216° |
| 2026-04-27 18:10 | -48.97713 | -70.59844 | 26409 ft | 403 kts | 216° |
| 2026-04-27 18:10 | -48.99966 | -70.62266 | 25708 ft | 401 kts | 216° |
| 2026-04-27 18:10 | -49.02249 | -70.64722 | 24984 ft | 398 kts | 216° |
| 2026-04-27 18:10 | -49.04494 | -70.67142 | 24282 ft | 394 kts | 216° |
| 2026-04-27 18:11 | -49.06716 | -70.69537 | 23630 ft | 390 kts | 216° |
| 2026-04-27 18:11 | -49.08890 | -70.71883 | 23090 ft | 385 kts | 216° |
| 2026-04-27 18:11 | -49.11069 | -70.74238 | 22626 ft | 385 kts | 216° |
| 2026-04-27 18:11 | -49.13260 | -70.76608 | 22192 ft | 387 kts | 216° |
| 2026-04-27 18:12 | -49.15436 | -70.78965 | 21764 ft | 386 kts | 216° |
| 2026-04-27 18:12 | -49.17613 | -70.81325 | 21340 ft | 383 kts | 216° |
| 2026-04-27 18:12 | -49.19787 | -70.83685 | 20873 ft | 381 kts | 216° |
| 2026-04-27 18:12 | -49.21928 | -70.86012 | 20421 ft | 379 kts | 216° |
| 2026-04-27 18:13 | -49.24065 | -70.88336 | 19969 ft | 376 kts | 216° |
| 2026-04-27 18:13 | -49.26182 | -70.90640 | 19530 ft | 375 kts | 216° |
| 2026-04-27 18:13 | -49.28316 | -70.92968 | 19090 ft | 374 kts | 216° |
| 2026-04-27 18:13 | -49.30412 | -70.95255 | 18660 ft | 371 kts | 216° |
| 2026-04-27 18:14 | -49.32490 | -70.97525 | 18231 ft | 368 kts | 216° |
| 2026-04-27 18:14 | -49.34574 | -70.99805 | 17807 ft | 366 kts | 216° |
| 2026-04-27 18:14 | -49.36635 | -71.02061 | 17390 ft | 366 kts | 216° |
| 2026-04-27 18:14 | -49.38694 | -71.04318 | 16977 ft | 364 kts | 216° |
| 2026-04-27 18:15 | -49.40723 | -71.06543 | 16572 ft | 361 kts | 216° |
| 2026-04-27 18:15 | -49.42763 | -71.08783 | 16167 ft | 359 kts | 216° |
| 2026-04-27 18:15 | -49.44801 | -71.11024 | 15767 ft | 360 kts | 216° |
| 2026-04-27 18:15 | -49.46812 | -71.13237 | 15367 ft | 357 kts | 216° |
| 2026-04-27 18:16 | -49.48828 | -71.15456 | 14969 ft | 355 kts | 216° |
| 2026-04-27 18:16 | -49.50818 | -71.17653 | 14575 ft | 353 kts | 216° |
| 2026-04-27 18:16 | -49.52815 | -71.19856 | 14180 ft | 351 kts | 216° |
| 2026-04-27 18:16 | -49.54762 | -71.22008 | 13789 ft | 348 kts | 216° |
| 2026-04-27 18:17 | -49.56736 | -71.24192 | 13402 ft | 347 kts | 216° |
| 2026-04-27 18:17 | -49.58664 | -71.26325 | 13012 ft | 344 kts | 216° |
| 2026-04-27 18:17 | -49.60603 | -71.28474 | 12627 ft | 341 kts | 215° |
| 2026-04-27 18:17 | -49.62642 | -71.30318 | 12251 ft | 341 kts | 207° |
| 2026-04-27 18:18 | -49.64774 | -71.31934 | 11896 ft | 340 kts | 208° |
| 2026-04-27 18:18 | -49.66856 | -71.33555 | 11541 ft | 339 kts | 207° |
| 2026-04-27 18:18 | -49.68957 | -71.35182 | 11180 ft | 336 kts | 208° |
| 2026-04-27 18:18 | -49.71037 | -71.36789 | 10843 ft | 335 kts | 207° |
| 2026-04-27 18:19 | -49.73124 | -71.38406 | 10480 ft | 333 kts | 208° |
| 2026-04-27 18:19 | -49.75179 | -71.39996 | 10168 ft | 332 kts | 208° |
| 2026-04-27 18:19 | -49.77210 | -71.41568 | 10059 ft | 319 kts | 208° |
| 2026-04-27 18:19 | -49.79143 | -71.43066 | 9983 ft | 300 kts | 208° |
| 2026-04-27 18:20 | -49.80948 | -71.44466 | 9752 ft | 282 kts | 208° |
| 2026-04-27 18:20 | -49.82637 | -71.45776 | 9755 ft | 260 kts | 208° |
| 2026-04-27 18:20 | -49.84195 | -71.46986 | 9759 ft | 247 kts | 209° |
| 2026-04-27 18:20 | -49.85720 | -71.48176 | 9767 ft | 248 kts | 208° |
| 2026-04-27 18:21 | -49.87280 | -71.49391 | 9767 ft | 252 kts | 208° |
| 2026-04-27 18:21 | -49.88850 | -71.50616 | 9763 ft | 252 kts | 208° |
| 2026-04-27 18:21 | -49.90404 | -71.51826 | 9789 ft | 251 kts | 208° |
| 2026-04-27 18:21 | -49.91962 | -71.53042 | 9653 ft | 254 kts | 208° |
| 2026-04-27 18:22 | -49.93557 | -71.54288 | 9252 ft | 258 kts | 208° |
| 2026-04-27 18:22 | -49.95174 | -71.55550 | 8847 ft | 259 kts | 209° |
| 2026-04-27 18:22 | -49.96773 | -71.56799 | 8442 ft | 261 kts | 209° |
| 2026-04-27 18:22 | -49.98403 | -71.58074 | 8039 ft | 262 kts | 209° |
| 2026-04-27 18:23 | -50.00039 | -71.59355 | 7552 ft | 266 kts | 209° |
| 2026-04-27 18:23 | -50.01654 | -71.60619 | 7406 ft | 256 kts | 210° |
| 2026-04-27 18:23 | -50.03221 | -71.61845 | 7161 ft | 252 kts | 210° |
| 2026-04-27 18:23 | -50.04793 | -71.63081 | 6859 ft | 254 kts | 210° |
| 2026-04-27 18:24 | -50.06370 | -71.64319 | 6560 ft | 253 kts | 210° |
| 2026-04-27 18:24 | -50.07931 | -71.65545 | 6278 ft | 253 kts | 211° |
| 2026-04-27 18:24 | -50.09515 | -71.66792 | 5990 ft | 253 kts | 211° |
| 2026-04-27 18:24 | -50.10983 | -71.67950 | 5546 ft | 258 kts | 210° |
| 2026-04-27 18:25 | -50.12589 | -71.69216 | 5039 ft | 259 kts | 210° |
| 2026-04-27 18:25 | -50.14178 | -71.70466 | 4776 ft | 250 kts | 210° |
| 2026-04-27 18:25 | -50.15688 | -71.71653 | 4603 ft | 240 kts | 210° |
| 2026-04-27 18:25 | -50.17223 | -71.72601 | 4423 ft | 236 kts | 199° |
| 2026-04-27 18:26 | -50.18827 | -71.73273 | 3930 ft | 242 kts | 198° |
| 2026-04-27 18:26 | -50.20417 | -71.73944 | 3730 ft | 235 kts | 198° |
| 2026-04-27 18:26 | -50.21973 | -71.74595 | 3570 ft | 227 kts | 197° |
| 2026-04-27 18:26 | -50.23478 | -71.75222 | 3389 ft | 221 kts | 197° |
| 2026-04-27 18:27 | -50.24902 | -71.75926 | 3207 ft | 213 kts | 212° |
| 2026-04-27 18:27 | -50.25905 | -71.77502 | 3010 ft | 203 kts | 247° |
| 2026-04-27 18:27 | -50.26236 | -71.79576 | 2855 ft | 190 kts | 263° |
| 2026-04-27 18:27 | -50.26438 | -71.81583 | 2690 ft | 184 kts | 263° |
| 2026-04-27 18:28 | -50.26609 | -71.83491 | 2655 ft | 170 kts | 264° |
| 2026-04-27 18:28 | -50.26751 | -71.85266 | 2694 ft | 160 kts | 264° |
| 2026-04-27 18:28 | -50.26888 | -71.87000 | 2710 ft | 166 kts | 264° |
| 2026-04-27 18:28 | -50.27028 | -71.88837 | 2563 ft | 169 kts | 264° |
| 2026-04-27 18:29 | -50.27130 | -71.90585 | 2334 ft | 158 kts | 265° |
| 2026-04-27 18:29 | -50.27229 | -71.92239 | 2111 ft | 144 kts | 264° |
| 2026-04-27 18:29 | -50.27319 | -71.93693 | 1897 ft | 127 kts | 264° |
| 2026-04-27 18:29 | -50.27398 | -71.94991 | 1701 ft | 113 kts | 264° |
| 2026-04-27 18:30 | -50.27470 | -71.96182 | 1571 ft | 110 kts | 263° |
| 2026-04-27 18:30 | -50.27544 | -71.97393 | 1456 ft | 114 kts | 263° |
| 2026-04-27 18:30 | -50.27599 | -71.98284 | 1355 ft | 114 kts | 263° |
| 2026-04-27 18:30 | -50.27625 | -71.98708 | 1306 ft | 114 kts | 263° |
| 2026-04-27 18:31 | -50.27688 | -71.99939 | 1154 ft | 115 kts | 264° |
| 2026-04-27 18:31 | -50.27774 | -72.01190 | 1012 ft | 116 kts | 261° |
| 2026-04-27 18:31 | -50.27849 | -72.02482 | 855 ft | 119 kts | 261° |
| 2026-04-27 18:31 | -50.27929 | -72.03736 | 695 ft | 113 kts | 264° |
| 2026-04-27 18:32 | -50.27985 | -72.04684 | 679 ft | 42 kts | 264° |
| 2026-04-27 18:32 | -50.27995 | -72.04852 | 679 ft | 2 kts | 264° |
| 2026-04-27 18:32 | -50.28001 | -72.04933 | 679 ft | 11 kts | 264° |
| 2026-04-27 18:32 | -50.28006 | -72.05016 | 679 ft | 10 kts | 263° |
| 2026-04-27 18:33 | -50.28015 | -72.05150 | 679 ft | 14 kts | 265° |
| 2026-04-27 18:33 | -50.28024 | -72.05318 | 679 ft | 17 kts | 265° |
| 2026-04-27 18:33 | -50.28068 | -72.05418 | 679 ft | 11 kts | 178° |
| 2026-04-27 18:33 | -50.28151 | -72.05408 | 679 ft | 12 kts | 175° |
| 2026-04-27 18:34 | -50.28199 | -72.05402 | 679 ft | 2 kts | 175° |
| 2026-04-27 18:34 | -50.28234 | -72.05396 | 679 ft | 6 kts | 178° |
| 2026-04-27 18:34 | -50.28257 | -72.05444 | 679 ft | 7 kts | 258° |
| 2026-04-27 18:34 | -50.28265 | -72.05531 | 679 ft | 5 kts | 261° |
| 2026-04-27 18:35 | -50.28273 | -72.05550 | 679 ft | 0 kts | 207° |
| 2026-04-27 18:35 | -50.28278 | -72.05551 | 679 ft | 1 kts | 181° |
| 2026-04-27 18:35 | -50.28299 | -72.05534 | 678 ft | 4 kts | 161° |
| 2026-04-27 18:35 | -50.28339 | -72.05528 | 679 ft | 3 kts | 175° |
| 2026-04-27 18:36 | -50.28345 | -72.05527 | 679 ft | 0 kts | 175° |